Time;durP1;ratioP1;P1;durP2;ratioP2;P2;SDS_P1;SDS_P2;PMS_P1;PMS_P2;Temp;Humidity;BMP_temperature;BMP_pressure;BME280_temperature;BME280_humidity;BME280_pressure;Samples;Min_cycle;Max_cycle;Signal;HPM_P1;HPM_P2
2022/06/25 00:00:25;;;;;;;5.33;3.87;;;;;;;23.40;80.84;100381.53;5075639;28;20947;-76
2022/06/25 00:02:53;;;;;;;5.70;3.30;;;;;;;23.38;80.91;100370.09;5074857;28;20461;-77
2022/06/25 00:05:29;;;;;;;5.47;3.57;;;;;;;23.39;81.21;100385.47;5075308;28;20536;-77
2022/06/25 00:07:55;;;;;;;4.93;4.00;;;;;;;23.36;81.28;100387.03;5075806;28;20426;-77
2022/06/25 00:10:22;;;;;;;5.53;4.00;;;;;;;23.34;81.08;100383.91;5075849;28;20434;-77
2022/06/25 00:12:48;;;;;;;6.50;3.87;;;;;;;23.32;81.33;100371.63;5075132;28;20477;-77
2022/06/25 00:15:15;;;;;;;3.93;3.10;;;;;;;23.30;81.76;100374.81;5075282;28;20445;-77
2022/06/25 00:17:41;;;;;;;6.10;4.03;;;;;;;23.27;81.63;100374.78;5074926;28;20199;-77
2022/06/25 00:20:11;;;;;;;5.23;3.37;;;;;;;23.23;81.45;100377.53;5075157;28;20869;-77
2022/06/25 00:22:38;;;;;;;6.17;3.60;;;;;;;23.20;81.69;100386.63;5074757;28;20463;-77
2022/06/25 00:25:05;;;;;;;4.17;3.73;;;;;;;23.19;81.68;100384.25;5074577;28;20964;-77
2022/06/25 00:27:32;;;;;;;7.83;3.53;;;;;;;23.13;81.89;100392.16;5074721;28;21024;-77
2022/06/25 00:29:58;;;;;;;4.10;3.53;;;;;;;23.08;82.24;100390.56;5074674;28;20452;-77
2022/06/25 00:32:25;;;;;;;6.00;4.10;;;;;;;23.00;82.84;100396.44;5074882;28;20468;-77
2022/06/25 00:34:52;;;;;;;10.20;4.10;;;;;;;22.93;83.27;100386.16;5074827;28;20486;-76
2022/06/25 00:37:19;;;;;;;6.57;3.73;;;;;;;22.89;83.57;100394.44;5074790;28;20812;-77
2022/06/25 00:39:46;;;;;;;5.63;4.07;;;;;;;22.85;83.76;100395.59;5074771;28;20520;-77
2022/06/25 00:42:14;;;;;;;7.43;3.40;;;;;;;22.80;84.36;100393.19;5074033;28;21012;-76
2022/06/25 00:44:41;;;;;;;5.80;4.20;;;;;;;22.71;84.83;100393.56;5074358;28;20541;-77
2022/06/25 00:47:11;;;;;;;5.23;3.90;;;;;;;22.68;85.17;100391.56;5074903;28;20441;-76
2022/06/25 00:49:38;;;;;;;7.53;4.77;;;;;;;22.67;85.45;100388.03;5074566;28;20532;-77
2022/06/25 00:52:08;;;;;;;5.50;4.27;;;;;;;22.61;85.39;100389.56;5074559;28;20473;-77
2022/06/25 00:54:38;;;;;;;5.07;3.70;;;;;;;22.59;85.56;100388.38;5074613;28;20476;-76
2022/06/25 00:57:07;;;;;;;6.27;4.13;;;;;;;22.55;85.74;100390.31;5074490;28;20434;-76
2022/06/25 00:59:40;;;;;;;7.30;4.43;;;;;;;22.51;85.71;100378.47;5074331;28;20449;-76
2022/06/25 01:02:06;;;;;;;5.40;3.90;;;;;;;22.46;86.05;100373.31;5074102;28;20548;-76
2022/06/25 01:04:33;;;;;;;5.13;4.43;;;;;;;22.41;86.00;100378.03;5073943;28;20442;-76
2022/06/25 01:07:00;;;;;;;8.80;4.63;;;;;;;22.35;86.27;100374.03;5074009;28;20441;-76
2022/06/25 01:09:27;;;;;;;5.53;4.30;;;;;;;22.33;86.22;100378.38;5074162;28;20876;-76
2022/06/25 01:11:55;;;;;;;6.23;4.40;;;;;;;22.27;86.52;100369.69;5073723;28;20485;-76
2022/06/25 01:14:22;;;;;;;4.73;3.70;;;;;;;22.25;86.62;100371.25;5074022;28;20473;-76
2022/06/25 01:16:48;;;;;;;6.70;4.90;;;;;;;22.21;86.77;100371.22;5072774;28;20448;-76
2022/06/25 01:19:15;;;;;;;5.73;4.23;;;;;;;22.19;87.34;100362.53;5073631;28;20962;-76
2022/06/25 01:21:42;;;;;;;6.20;4.37;;;;;;;22.15;87.77;100362.50;5073824;28;20470;-77
2022/06/25 01:24:11;;;;;;;5.47;4.27;;;;;;;22.15;87.75;100372.75;5073781;28;20445;-77
2022/06/25 01:26:39;;;;;;;5.77;3.30;;;;;;;22.12;87.42;100373.53;5073846;28;20437;-76
2022/06/25 01:29:07;;;;;;;6.33;4.27;;;;;;;22.04;87.72;100377.38;5073785;28;20441;-76
2022/06/25 01:31:33;;;;;;;4.17;3.77;;;;;;;21.97;88.00;100372.63;5073407;28;20994;-76
2022/06/25 01:34:00;;;;;;;5.80;3.83;;;;;;;21.95;88.35;100374.94;5073378;28;21028;-76
2022/06/25 01:36:27;;;;;;;3.30;2.97;;;;;;;21.88;88.47;100377.69;5073743;28;20548;-77
2022/06/25 01:38:54;;;;;;;7.30;4.27;;;;;;;21.85;88.35;100372.91;5073383;28;20448;-77
2022/06/25 01:41:22;;;;;;;7.10;4.60;;;;;;;21.82;88.65;100381.94;5073534;28;20445;-76
2022/06/25 01:43:49;;;;;;;6.17;4.40;;;;;;;21.76;89.08;100381.50;5073591;28;20532;-77
2022/06/25 01:46:15;;;;;;;6.03;4.10;;;;;;;21.71;89.30;100376.34;5072944;28;20954;-77
2022/06/25 01:48:42;;;;;;;7.30;5.27;;;;;;;21.69;89.17;100375.94;5073499;28;20545;-77
2022/06/25 01:51:09;;;;;;;5.20;4.70;;;;;;;21.61;89.67;100369.59;5073229;28;20449;-76
2022/06/25 01:53:35;;;;;;;5.10;4.60;;;;;;;21.58;89.32;100372.31;5073129;28;20549;-78
2022/06/25 01:56:03;;;;;;;5.97;4.43;;;;;;;21.56;89.77;100377.41;5074958;28;20437;-78
2022/06/25 01:58:31;;;;;;;7.33;4.17;;;;;;;21.50;89.49;100373.41;5075857;28;20468;-78
2022/06/25 02:00:58;;;;;;;5.67;3.67;;;;;;;21.45;89.55;100380.06;5074821;28;20446;-77
2022/06/25 02:03:24;;;;;;;11.73;5.70;;;;;;;21.42;89.77;100381.63;5073146;28;20997;-77
2022/06/25 02:06:00;;;;;;;6.47;4.60;;;;;;;21.39;90.08;100379.63;5073441;28;20438;-77
2022/06/25 02:08:30;;;;;;;5.23;3.97;;;;;;;21.28;90.24;100375.94;5073484;28;20793;-77
2022/06/25 02:10:57;;;;;;;6.63;4.70;;;;;;;21.23;90.54;100379.03;5073667;28;20520;-77
2022/06/25 02:13:25;;;;;;;5.37;4.10;;;;;;;21.23;91.17;100383.75;5072800;28;20560;-77
2022/06/25 02:15:53;;;;;;;11.23;4.23;;;;;;;21.22;90.69;100380.22;5073587;28;20529;-77
2022/06/25 02:18:20;;;;;;;6.30;5.27;;;;;;;21.17;91.19;100380.56;5073812;28;20452;-78
2022/06/25 02:20:47;;;;;;;5.77;4.70;;;;;;;21.14;91.22;100378.56;5073949;28;20536;-77
2022/06/25 02:23:15;;;;;;;4.80;4.13;;;;;;;21.10;91.51;100380.47;5074475;28;20554;-78
2022/06/25 02:25:43;;;;;;;5.63;4.87;;;;;;;21.11;91.59;100376.56;5073444;28;20939;-78
2022/06/25 02:28:10;;;;;;;7.90;4.50;;;;;;;21.13;91.56;100380.53;5076076;28;20480;-74
2022/06/25 02:30:38;;;;;;;5.20;4.40;;;;;;;21.11;91.59;100382.06;5077615;28;20444;-78
2022/06/25 02:33:09;;;;;;;8.97;5.33;;;;;;;21.06;91.51;100382.41;5079095;28;20461;-75
2022/06/25 02:35:36;;;;;;;11.00;5.00;;;;;;;21.03;91.64;100389.47;5077212;28;20829;-75
2022/06/25 02:38:02;;;;;;;8.90;5.50;;;;;;;21.00;91.87;100381.16;5077057;28;20448;-75
2022/06/25 02:40:29;;;;;;;5.47;4.93;;;;;;;20.98;91.77;100389.78;5077048;28;20436;-75
2022/06/25 02:42:56;;;;;;;6.80;4.53;;;;;;;20.95;91.57;100387.00;5076467;28;20853;-75
2022/06/25 02:45:23;;;;;;;8.20;4.90;;;;;;;20.89;92.10;100392.88;5077210;28;20445;-75
2022/06/25 02:47:49;;;;;;;6.73;4.80;;;;;;;20.86;92.39;100393.59;5076675;28;20454;-75
2022/06/25 02:50:17;;;;;;;10.13;5.33;;;;;;;20.84;92.37;100395.13;5076859;28;20523;-75
2022/06/25 02:52:44;;;;;;;7.37;5.27;;;;;;;20.81;92.60;100404.97;5076751;28;20555;-75
2022/06/25 02:55:14;;;;;;;6.17;5.33;;;;;;;20.76;92.83;100408.03;5076656;28;20487;-75
2022/06/25 03:00:25;;;;;;;6.17;4.93;;;;;;;20.64;93.90;100402.78;5076677;28;20798;-75
2022/06/25 03:02:51;;;;;;;6.20;4.90;;;;;;;20.63;93.50;100406.69;5076240;28;20471;-75
2022/06/25 03:05:19;;;;;;;7.13;5.30;;;;;;;20.62;93.56;100413.34;5076235;28;21006;-75
2022/06/25 03:07:46;;;;;;;7.57;5.47;;;;;;;20.59;93.87;100422.38;5076187;28;20479;-76
2022/06/25 03:10:13;;;;;;;9.93;6.10;;;;;;;20.55;94.55;100427.81;5076119;28;20449;-75
2022/06/25 03:12:40;;;;;;;6.70;4.97;;;;;;;20.55;94.04;100430.56;5075929;28;21081;-75
2022/06/25 03:15:07;;;;;;;7.10;5.20;;;;;;;20.55;94.32;100421.53;5076234;28;20503;-76
2022/06/25 03:17:34;;;;;;;5.50;4.67;;;;;;;20.54;93.89;100433.69;5075614;28;20920;-76
2022/06/25 03:20:00;;;;;;;9.53;5.40;;;;;;;20.55;93.91;100444.34;5076312;28;20445;-75
2022/06/25 03:22:28;;;;;;;8.43;5.17;;;;;;;20.56;93.40;100445.13;5075851;28;20582;-76
2022/06/25 03:24:56;;;;;;;8.53;5.63;;;;;;;20.53;94.38;100452.16;5075806;28;20441;-76
2022/06/25 03:27:22;;;;;;;6.47;5.53;;;;;;;20.53;93.44;100456.88;5076431;28;20536;-75
2022/06/25 03:29:49;;;;;;;8.30;5.77;;;;;;;20.55;94.44;100460.06;5076031;28;21008;-77
2022/06/25 03:32:15;;;;;;;8.37;5.40;;;;;;;20.56;93.95;100467.94;5075279;28;20543;-77
2022/06/25 03:34:42;;;;;;;5.47;4.40;;;;;;;20.58;94.09;100470.31;5075879;28;20476;-75
2022/06/25 03:37:09;;;;;;;9.87;4.77;;;;;;;20.55;94.20;100463.59;5075639;28;20532;-77
2022/06/25 03:39:36;;;;;;;7.23;5.57;;;;;;;20.54;94.55;100464.78;5074830;28;20850;-77
2022/06/25 03:42:03;;;;;;;7.90;5.47;;;;;;;20.59;94.53;100467.19;5075880;28;20544;-77
2022/06/25 03:44:30;;;;;;;8.73;5.70;;;;;;;20.60;94.41;100468.78;5075888;28;20452;-77
2022/06/25 03:46:57;;;;;;;8.43;5.17;;;;;;;20.63;93.41;100478.25;5076064;28;20440;-77
2022/06/25 03:49:23;;;;;;;6.83;5.63;;;;;;;20.65;93.60;100481.41;5075503;28;20962;-77
2022/06/25 03:51:51;;;;;;;9.27;5.43;;;;;;;20.64;93.81;100480.63;5074824;28;20495;-77
2022/06/25 03:54:17;;;;;;;8.73;5.77;;;;;;;20.63;93.73;100486.53;5075028;28;20484;-77
2022/06/25 03:56:45;;;;;;;6.43;4.90;;;;;;;20.67;93.30;100481.81;5075624;28;20536;-77
2022/06/25 03:59:12;;;;;;;10.10;6.77;;;;;;;20.69;93.45;100482.25;5075318;28;20967;-77
2022/06/25 04:01:38;;;;;;;9.63;6.50;;;;;;;20.71;93.48;100492.91;5075532;28;20544;-76
2022/06/25 04:04:05;;;;;;;7.70;6.00;;;;;;;20.64;93.28;100504.63;5075682;28;20437;-77
2022/06/25 04:06:32;;;;;;;8.60;5.27;;;;;;;20.66;93.23;100496.75;5075409;28;20447;-77
2022/06/25 04:08:59;;;;;;;6.20;5.27;;;;;;;20.74;93.63;100494.91;5075726;28;20487;-77
2022/06/25 04:11:26;;;;;;;14.53;6.40;;;;;;;20.80;94.32;100499.72;5074575;28;20544;-77
2022/06/25 04:13:54;;;;;;;10.03;6.67;;;;;;;20.85;95.13;100501.34;5074956;28;20958;-77
2022/06/25 04:16:20;;;;;;;11.93;6.10;;;;;;;20.93;94.51;100505.78;5074997;28;20881;-77
2022/06/25 04:18:47;;;;;;;7.70;6.20;;;;;;;21.05;93.65;100510.28;5075408;28;20528;-77
2022/06/25 04:21:14;;;;;;;8.87;6.97;;;;;;;21.12;92.86;100510.38;5074469;28;20519;-76
2022/06/25 04:23:40;;;;;;;9.87;5.97;;;;;;;21.18;93.18;100506.13;5074835;28;20951;-77
2022/06/25 04:26:08;;;;;;;9.10;6.17;;;;;;;21.24;92.34;100515.63;5074516;28;20786;-76
2022/06/25 04:31:21;;;;;;;8.60;5.73;;;;;;;21.38;93.96;100513.09;5076909;28;20404;-77
2022/06/25 04:33:47;;;;;;;8.27;6.40;;;;;;;21.41;93.98;100517.84;5076557;28;20544;-78
2022/06/25 04:36:14;;;;;;;8.20;5.57;;;;;;;21.47;93.61;100528.50;5075814;28;20477;-78
2022/06/25 04:38:40;;;;;;;10.93;6.30;;;;;;;21.55;92.49;100521.91;5076644;28;20452;-78
2022/06/25 04:41:07;;;;;;;8.27;5.20;;;;;;;21.60;91.91;100524.34;5077092;28;20445;-78
2022/06/25 04:43:34;;;;;;;6.17;4.80;;;;;;;21.67;91.85;100522.44;5077992;28;20534;-78
2022/06/25 04:46:00;;;;;;;7.13;5.27;;;;;;;21.81;91.93;100524.56;5076485;28;20465;-78
2022/06/25 04:48:28;;;;;;;8.73;6.13;;;;;;;21.95;92.79;100531.38;5078645;28;21042;-77
2022/06/25 04:50:55;;;;;;;7.43;5.10;;;;;;;22.04;92.36;100532.66;5074840;28;21006;-77
2022/06/25 04:53:22;;;;;;;7.47;5.10;;;;;;;22.11;91.25;100540.22;5075337;28;20461;-77
2022/06/25 04:55:48;;;;;;;10.13;7.10;;;;;;;22.19;90.72;100543.88;5075703;28;20569;-77
2022/06/25 04:58:15;;;;;;;6.13;5.07;;;;;;;22.27;90.15;100545.50;5075445;28;20477;-77
2022/06/25 05:00:42;;;;;;;9.63;5.63;;;;;;;22.31;90.21;100546.31;5084340;28;20461;-78
2022/06/25 05:03:09;;;;;;;9.53;6.67;;;;;;;22.29;89.83;100554.97;5088447;28;20840;-78
2022/06/25 05:05:37;;;;;;;9.97;6.60;;;;;;;22.29;89.60;100546.72;5079017;28;20438;-78
2022/06/25 05:08:04;;;;;;;14.90;6.87;;;;;;;22.39;89.86;100551.50;5077296;28;20447;-78
2022/06/25 05:10:31;;;;;;;11.10;6.17;;;;;;;22.51;90.96;100555.16;5081955;28;20513;-78
2022/06/25 05:13:15;;;;;;;8.93;6.50;;;;;;;22.60;90.72;100548.13;5075550;28;20561;-77
2022/06/25 05:15:43;;;;;;;12.73;6.93;;;;;;;22.71;90.69;100552.91;5075975;28;20469;-76
2022/06/25 05:18:11;;;;;;;8.63;6.00;;;;;;;22.76;90.98;100556.13;5077962;28;20491;-77
2022/06/25 05:20:39;;;;;;;8.80;7.37;;;;;;;22.84;90.51;100560.53;5077947;28;20434;-74
2022/06/25 05:23:06;;;;;;;15.00;11.00;;;;;;;22.91;89.29;100562.56;5073827;28;20468;-75
2022/06/25 05:25:33;;;;;;;17.50;9.80;;;;;;;22.97;88.23;100568.50;5074291;28;20520;-77
2022/06/25 05:28:00;;;;;;;14.27;10.70;;;;;;;23.02;88.48;100562.63;5074015;28;20540;-76
2022/06/25 05:30:26;;;;;;;12.80;9.83;;;;;;;23.15;90.12;100566.63;5073862;28;20528;-77
2022/06/25 05:32:53;;;;;;;16.53;9.80;;;;;;;23.26;89.25;100573.03;5073455;28;20471;-77
2022/06/25 05:35:19;;;;;;;14.43;9.37;;;;;;;23.36;88.31;100580.56;5073977;28;20496;-77
2022/06/25 05:37:48;;;;;;;24.70;10.60;;;;;;;23.48;87.67;100571.13;5073757;28;20455;-77
2022/06/25 05:40:15;;;;;;;13.20;9.60;;;;;;;23.57;87.05;100582.63;5073383;28;21001;-77
2022/06/25 05:42:42;;;;;;;11.80;8.93;;;;;;;23.69;87.49;100578.75;5073636;28;20460;-77
2022/06/25 05:45:10;;;;;;;10.93;9.10;;;;;;;23.79;87.34;100577.19;5073468;28;20476;-77
2022/06/25 05:47:37;;;;;;;14.50;9.90;;;;;;;23.87;85.48;100582.34;5073521;28;20523;-77
2022/06/25 05:50:04;;;;;;;15.47;9.70;;;;;;;23.94;85.27;100589.88;5073211;28;20524;-77
2022/06/25 05:52:31;;;;;;;11.97;8.27;;;;;;;24.03;84.47;100595.03;5073516;28;20550;-77
2022/06/25 05:54:58;;;;;;;14.43;9.13;;;;;;;24.05;82.38;100603.75;5073218;28;20564;-77
2022/06/25 05:57:25;;;;;;;13.63;8.47;;;;;;;24.02;82.59;100590.69;5073854;28;20446;-77
2022/06/25 05:59:52;;;;;;;10.80;9.30;;;;;;;24.05;83.70;100592.66;5073812;28;20475;-77
2022/06/25 06:02:18;;;;;;;14.17;9.40;;;;;;;24.12;83.72;100593.44;5072723;28;20461;-77
2022/06/25 06:04:45;;;;;;;14.90;9.10;;;;;;;24.16;83.17;100585.94;5073251;28;21037;-78
2022/06/25 06:07:12;;;;;;;14.67;9.37;;;;;;;24.21;83.29;100583.97;5073249;28;20525;-76
2022/06/25 06:09:38;;;;;;;14.83;10.20;;;;;;;24.20;80.65;100583.19;5073136;28;20544;-77
2022/06/25 06:12:07;;;;;;;11.40;8.30;;;;;;;24.16;80.55;100579.63;5072886;28;20942;-77
2022/06/25 06:14:33;;;;;;;15.33;9.70;;;;;;;24.08;81.29;100589.91;5073984;28;20484;-77
2022/06/25 06:17:00;;;;;;;15.93;9.60;;;;;;;24.13;82.28;100585.97;5073614;28;20437;-77
2022/06/25 06:19:26;;;;;;;12.03;9.17;;;;;;;24.13;82.77;100592.28;5072831;28;20441;-77
2022/06/25 06:21:53;;;;;;;11.90;8.40;;;;;;;24.20;82.63;100591.50;5073183;28;20544;-77
2022/06/25 06:24:20;;;;;;;11.40;8.33;;;;;;;24.29;82.02;100594.66;5072807;28;20826;-78
2022/06/25 06:26:46;;;;;;;16.77;8.90;;;;;;;24.36;81.96;100600.22;5072693;28;20966;-74
2022/06/25 06:29:18;;;;;;;16.90;9.63;;;;;;;24.36;80.20;100597.44;5073116;28;20536;-74
2022/06/25 06:31:44;;;;;;;13.10;9.07;;;;;;;24.29;79.94;100594.66;5072655;28;20526;-70
2022/06/25 06:34:11;;;;;;;13.73;10.50;;;;;;;24.32;80.76;100587.56;5073002;28;20448;-73
2022/06/25 06:36:37;;;;;;;13.17;8.97;;;;;;;24.33;79.85;100594.66;5072670;28;20487;-73
2022/06/25 06:39:04;;;;;;;10.20;8.10;;;;;;;24.38;80.86;100594.31;5072972;28;20441;-72
2022/06/25 06:41:31;;;;;;;10.03;8.30;;;;;;;24.51;81.81;100594.72;5072765;28;20548;-72
2022/06/25 06:43:57;;;;;;;11.67;8.20;;;;;;;24.60;81.11;100603.41;5072858;28;20442;-73
2022/06/25 06:46:25;;;;;;;10.43;7.03;;;;;;;24.72;80.58;100605.78;5072828;28;20433;-75
2022/06/25 06:48:52;;;;;;;12.83;7.63;;;;;;;24.76;79.49;100595.50;5072772;28;20528;-75
2022/06/25 06:51:18;;;;;;;10.50;7.77;;;;;;;24.80;79.67;100607.38;5072166;28;20895;-75
2022/06/25 06:53:45;;;;;;;9.40;7.10;;;;;;;24.83;79.31;100606.53;5072615;28;20441;-75
2022/06/25 06:56:12;;;;;;;10.30;7.20;;;;;;;24.81;78.86;100603.41;5072309;28;20477;-76
2022/06/25 06:58:38;;;;;;;12.17;7.53;;;;;;;24.85;79.69;100606.16;5072480;28;20445;-77
2022/06/25 07:01:05;;;;;;;14.63;7.47;;;;;;;24.87;79.07;100615.66;5072910;28;20524;-74
2022/06/25 07:03:33;;;;;;;12.17;7.40;;;;;;;24.90;77.76;100616.84;5072351;28;20467;-74
2022/06/25 07:06:00;;;;;;;16.10;7.43;;;;;;;24.91;76.55;100612.88;5072671;28;20894;-75
2022/06/25 07:08:27;;;;;;;8.30;6.30;;;;;;;24.94;75.01;100622.38;5072794;28;20532;-76
2022/06/25 07:10:53;;;;;;;9.20;6.47;;;;;;;25.02;76.12;100621.97;5073845;28;20445;-77
2022/06/25 07:13:20;;;;;;;7.43;6.40;;;;;;;25.05;77.21;100620.38;5073731;28;20850;-80
2022/06/25 07:15:47;;;;;;;11.33;6.70;;;;;;;25.08;77.29;100620.41;5077618;28;20563;-77
2022/06/25 07:18:13;;;;;;;7.00;5.70;;;;;;;25.10;78.39;100626.34;5077537;28;20457;-78
2022/06/25 07:20:41;;;;;;;9.40;7.93;;;;;;;25.12;77.74;100621.19;5077491;28;20535;-78
2022/06/25 07:23:08;;;;;;;12.73;8.20;;;;;;;25.13;77.84;100617.22;5076500;28;20556;-76
2022/06/25 07:25:35;;;;;;;13.77;8.07;;;;;;;25.07;77.47;100620.78;5078599;28;20448;-79
2022/06/25 07:28:02;;;;;;;17.93;8.20;;;;;;;25.04;77.50;100616.81;5078901;28;20447;-79
2022/06/25 07:30:28;;;;;;;11.63;8.40;;;;;;;24.95;76.96;100623.97;5078849;28;20447;-78
2022/06/25 07:32:55;;;;;;;9.70;6.73;;;;;;;24.86;78.98;100616.84;5077188;28;21052;-77
2022/06/25 07:35:21;;;;;;;9.40;7.40;;;;;;;24.99;77.53;100611.69;5077729;28;20994;-78
2022/06/25 07:37:49;;;;;;;8.87;6.40;;;;;;;25.07;78.34;100609.69;5078562;28;20441;-78
2022/06/25 07:40:16;;;;;;;10.23;7.70;;;;;;;25.11;77.92;100611.28;5079319;28;21037;-78
2022/06/25 07:42:42;;;;;;;6.70;5.77;;;;;;;25.15;77.84;100608.53;5079702;28;20565;-78
2022/06/25 07:45:10;;;;;;;10.80;6.93;;;;;;;25.16;75.81;100605.34;5080249;28;20821;-79
2022/06/25 07:47:38;;;;;;;11.37;6.90;;;;;;;25.20;75.13;100608.09;5079765;28;20443;-70
2022/06/25 07:52:52;;;;;;;9.30;6.10;;;;;;;25.33;74.73;100608.47;5075443;28;20468;-72
2022/06/25 07:55:19;;;;;;;10.17;7.20;;;;;;;25.37;77.45;100615.59;5076896;28;20452;-78
2022/06/25 07:57:46;;;;;;;13.20;6.40;;;;;;;25.52;76.33;100610.75;5078297;28;20452;-78
2022/06/25 08:00:13;;;;;;;14.50;7.10;;;;;;;25.63;73.80;100616.25;5078866;28;20525;-78
2022/06/25 08:02:40;;;;;;;10.67;7.10;;;;;;;25.75;75.13;100621.34;5078246;28;20471;-79
2022/06/25 08:05:07;;;;;;;9.50;6.67;;;;;;;25.83;76.50;100613.81;5077493;28;20942;-78
2022/06/25 08:07:34;;;;;;;10.90;7.50;;;;;;;25.89;77.83;100618.53;5078028;28;20455;-78
2022/06/25 08:10:02;;;;;;;13.90;8.20;;;;;;;25.92;79.57;100620.50;5078345;28;20481;-78
2022/06/25 08:12:28;;;;;;;11.37;7.20;;;;;;;25.97;80.28;100618.50;5075745;28;20473;-78
2022/06/25 08:14:55;;;;;;;9.47;7.37;;;;;;;26.02;80.65;100618.06;5077213;28;20593;-79
2022/06/25 08:17:21;;;;;;;7.80;6.33;;;;;;;25.95;75.20;100621.69;5066695;28;20520;-78
2022/06/25 08:19:48;;;;;;;12.83;8.43;;;;;;;26.00;76.19;100621.25;5062937;28;20532;-78
2022/06/25 08:22:15;;;;;;;11.93;7.57;;;;;;;26.03;79.76;100620.47;5064898;28;20851;-78
2022/06/25 08:24:41;;;;;;;8.17;7.07;;;;;;;26.08;81.43;100624.78;5075372;28;20437;-78
2022/06/25 08:27:10;;;;;;;7.73;6.93;;;;;;;26.12;83.44;100622.78;5076867;28;20441;-78
2022/06/25 08:29:36;;;;;;;9.67;6.97;;;;;;;26.16;83.65;100626.31;5076481;28;20540;-78
2022/06/25 08:32:03;;;;;;;9.70;6.50;;;;;;;26.22;83.34;100632.25;5076262;28;20474;-78
2022/06/25 08:34:30;;;;;;;7.97;6.60;;;;;;;26.28;83.60;100636.94;5076057;28;20541;-75
2022/06/25 08:36:57;;;;;;;11.57;8.03;;;;;;;26.35;82.81;100639.69;5076884;28;20483;-78
2022/06/25 08:39:23;;;;;;;9.73;7.43;;;;;;;26.39;79.77;100631.34;5075678;28;20429;-76
2022/06/25 08:41:50;;;;;;;12.60;7.90;;;;;;;26.42;75.49;100642.38;5076699;28;20547;-79
2022/06/25 08:44:18;;;;;;;8.20;6.50;;;;;;;26.53;77.20;100636.81;5079986;28;20488;-79
2022/06/25 08:46:44;;;;;;;8.20;6.43;;;;;;;26.61;78.44;100640.31;5078415;28;20513;-78
2022/06/25 08:49:13;;;;;;;11.27;8.00;;;;;;;26.63;71.54;100640.69;5077803;28;20899;-78
2022/06/25 08:51:39;;;;;;;12.10;7.33;;;;;;;26.69;69.59;100636.25;5078056;28;20465;-79
2022/06/25 08:54:08;;;;;;;7.43;6.40;;;;;;;26.73;67.36;100642.56;5078303;28;20437;-78
2022/06/25 08:56:35;;;;;;;9.50;7.10;;;;;;;26.82;74.34;100636.53;5078227;28;20539;-78
2022/06/25 08:59:02;;;;;;;15.07;6.40;;;;;;;26.94;75.80;100647.16;5079369;28;20449;-78
2022/06/25 09:01:30;;;;;;;8.73;6.80;;;;;;;27.05;72.96;100642.31;5078395;28;20809;-78
2022/06/25 09:03:57;;;;;;;8.33;6.27;;;;;;;27.08;66.68;100649.81;5078926;28;20475;-78
2022/06/25 09:06:23;;;;;;;8.23;6.57;;;;;;;27.17;70.05;100646.56;5077515;28;20520;-77
2022/06/25 09:09:09;;;;;;;11.90;7.17;;;;;;;27.13;65.92;100645.81;5078321;28;20442;-78
2022/06/25 09:11:49;;;;;;;7.07;5.77;;;;;;;27.27;67.76;100647.66;5079468;28;20465;-79
2022/06/25 09:14:24;;;;;;;11.13;6.10;;;;;;;27.34;66.11;100645.59;5079088;28;20477;-79
2022/06/25 09:16:57;;;;;;;8.20;6.83;;;;;;;27.40;64.59;100649.50;5079924;28;20572;-79
2022/06/25 09:19:31;;;;;;;9.37;6.00;;;;;;;27.52;69.56;100650.94;5079760;28;20520;-78
2022/06/25 09:21:59;;;;;;;7.73;6.57;;;;;;;27.60;66.52;100651.66;5078912;28;20486;-78
2022/06/25 09:24:39;;;;;;;13.00;7.53;;;;;;;27.51;63.63;100648.59;5077515;28;20931;-79
2022/06/25 09:27:06;;;;;;;10.37;7.67;;;;;;;27.56;65.44;100646.13;5081372;28;20516;-80
2022/06/25 09:29:42;;;;;;;7.83;7.03;;;;;;;27.50;64.67;100652.59;5081295;28;20532;-79
2022/06/25 09:32:11;;;;;;;10.10;7.27;;;;;;;27.50;65.52;100647.81;5080010;28;20472;-79
2022/06/25 09:34:39;;;;;;;7.20;6.13;;;;;;;27.47;64.90;100643.06;5080721;28;20445;-79
2022/06/25 09:37:21;;;;;;;12.23;6.83;;;;;;;27.42;63.60;100638.75;5080099;28;20920;-79
2022/06/25 09:39:49;;;;;;;9.10;6.80;;;;;;;27.34;64.35;100651.16;5079808;28;20880;-78
2022/06/25 09:42:23;;;;;;;9.53;6.83;;;;;;;27.47;63.67;100643.06;5080412;28;20906;-79
2022/06/25 09:44:59;;;;;;;8.80;6.60;;;;;;;27.64;65.07;100647.63;5081020;28;20532;-79
2022/06/25 09:47:28;;;;;;;12.30;8.20;;;;;;;27.79;64.21;100653.81;5081591;28;20422;-78
2022/06/25 09:50:04;;;;;;;10.80;7.60;;;;;;;27.72;62.42;100655.91;5081478;28;20520;-79
2022/06/25 09:52:31;;;;;;;9.90;7.63;;;;;;;27.76;62.70;100656.63;5081520;28;20453;-79
2022/06/25 09:54:57;;;;;;;10.30;7.03;;;;;;;27.91;63.01;100658.06;5082104;28;20959;-79
2022/06/25 09:57:24;;;;;;;8.53;6.90;;;;;;;27.91;62.97;100666.41;5075004;28;20937;-73
2022/06/25 09:59:53;;;;;;;8.30;6.80;;;;;;;27.80;63.58;100654.59;5071870;28;20463;-74
2022/06/25 10:02:20;;;;;;;8.03;7.03;;;;;;;27.74;63.70;100665.41;5073357;28;20487;-77
2022/06/25 10:04:49;;;;;;;10.13;6.20;;;;;;;27.66;64.87;100667.47;5076102;28;20516;-79
2022/06/25 10:07:18;;;;;;;7.93;6.30;;;;;;;27.72;63.91;100662.28;5075447;28;20536;-78
2022/06/25 10:09:46;;;;;;;11.77;6.40;;;;;;;27.69;65.27;100659.50;5076644;28;21034;-79
2022/06/25 10:12:14;;;;;;;6.43;5.50;;;;;;;27.69;65.09;100656.72;5076357;28;20488;-79
2022/06/25 10:14:41;;;;;;;6.80;6.03;;;;;;;27.62;64.61;100665.94;5078003;28;20541;-78
2022/06/25 10:17:09;;;;;;;12.93;7.70;;;;;;;27.60;64.03;100668.34;5076670;28;20928;-79
2022/06/25 10:19:37;;;;;;;6.90;5.90;;;;;;;27.61;63.83;100667.94;5076859;28;20444;-79
2022/06/25 10:22:05;;;;;;;7.93;5.43;;;;;;;27.63;63.67;100664.75;5077241;28;20557;-80
2022/06/25 10:24:35;;;;;;;13.00;7.67;;;;;;;27.56;63.00;100664.81;5077502;28;20552;-79
2022/06/25 10:27:02;;;;;;;7.70;6.37;;;;;;;27.49;63.20;100659.31;5077252;28;20967;-79
2022/06/25 10:29:31;;;;;;;9.17;6.70;;;;;;;27.51;64.75;100662.50;5076739;28;20520;-79
2022/06/25 10:32:14;;;;;;;9.20;7.20;;;;;;;27.65;69.84;100660.31;5078114;28;20531;-79
2022/06/25 10:34:52;;;;;;;13.17;8.07;;;;;;;27.68;65.46;100661.50;5077230;28;20816;-79
2022/06/25 10:37:21;;;;;;;9.50;6.47;;;;;;;27.70;65.21;100661.06;5076961;28;20461;-79
2022/06/25 10:39:49;;;;;;;9.23;6.17;;;;;;;27.74;63.27;100656.28;5077342;28;21045;-80
2022/06/25 10:45:52;;;;;;;10.77;6.20;;;;;;;28.38;60.50;100659.00;5076645;28;20408;-79
2022/06/25 10:48:22;;;;;;;8.20;5.63;;;;;;;28.31;60.28;100652.72;5078133;28;20414;-79
2022/06/25 10:50:50;;;;;;;6.10;5.23;;;;;;;28.35;59.94;100656.25;5080557;28;20522;-79
2022/06/25 10:53:23;;;;;;;13.13;5.20;;;;;;;28.48;63.07;100656.47;5080802;28;20473;-79
2022/06/25 10:56:13;;;;;;;8.33;5.30;;;;;;;28.74;64.41;100652.84;5080759;28;20432;-79
2022/06/25 10:58:44;;;;;;;6.37;4.87;;;;;;;28.88;61.71;100660.97;5081333;28;20436;-79
2022/06/25 11:01:22;;;;;;;7.53;5.20;;;;;;;28.78;57.37;100663.94;5080677;28;20509;-79
2022/06/25 11:03:52;;;;;;;5.03;4.33;;;;;;;28.77;58.30;100656.78;5081027;28;20811;-79
2022/06/25 11:06:21;;;;;;;7.90;4.67;;;;;;;28.72;58.89;100668.41;5081814;28;20430;-79
2022/06/25 11:08:50;;;;;;;6.80;5.53;;;;;;;28.60;57.34;100664.25;5081920;28;20468;-79
2022/06/25 11:11:25;;;;;;;8.23;5.43;;;;;;;28.37;57.50;100662.97;5079781;28;20835;-78
2022/06/25 11:13:52;;;;;;;6.63;5.00;;;;;;;28.32;58.80;100668.22;5080899;28;20460;-79
2022/06/25 11:16:20;;;;;;;8.00;4.70;;;;;;;28.41;58.93;100665.72;5079673;28;20818;-79
2022/06/25 11:18:48;;;;;;;10.60;5.27;;;;;;;28.31;58.96;100661.84;5081054;28;20570;-79
2022/06/25 11:21:32;;;;;;;8.67;6.00;;;;;;;28.25;60.20;100666.34;5080560;28;20442;-79
2022/06/25 11:24:12;;;;;;;5.30;4.37;;;;;;;28.35;62.29;100664.63;5080465;28;20516;-79
2022/06/25 11:29:26;;;;;;;8.77;5.47;;;;;;;28.44;60.64;100661.31;5080797;28;20408;-79
2022/06/25 11:31:53;;;;;;;6.63;5.40;;;;;;;28.40;59.40;100666.94;5080686;28;20476;-79
2022/06/25 11:34:21;;;;;;;5.07;4.57;;;;;;;28.43;60.59;100654.16;5080346;28;20455;-79
2022/06/25 11:37:00;;;;;;;9.70;5.60;;;;;;;28.56;63.67;100663.50;5080279;28;20913;-79
2022/06/25 11:39:29;;;;;;;6.77;4.97;;;;;;;28.63;62.61;100663.38;5080525;28;20536;-79